sensor_id;sensor_type;location;lat;lon;timestamp;P1;durP1;ratioP1;P2;durP2;ratioP2
71127;SDS011;59249;59.736;30.568;2024-03-23T00:53:34;2.47;;;0.30;;
71127;SDS011;59249;59.736;30.568;2024-03-23T00:56:03;2.65;;;0.40;;
71127;SDS011;59249;59.736;30.568;2024-03-23T00:58:35;2.05;;;0.30;;
71127;SDS011;59249;59.736;30.568;2024-03-23T01:01:08;2.53;;;0.53;;
71127;SDS011;59249;59.736;30.568;2024-03-23T01:03:35;1.50;;;0.15;;
71127;SDS011;59249;59.736;30.568;2024-03-23T01:06:18;1.83;;;0.30;;
71127;SDS011;59249;59.736;30.568;2024-03-23T01:09:03;3.13;;;0.52;;
71127;SDS011;59249;59.736;30.568;2024-03-23T01:11:38;2.25;;;0.30;;
71127;SDS011;59249;59.736;30.568;2024-03-23T01:14:08;1.93;;;0.30;;
71127;SDS011;59249;59.736;30.568;2024-03-23T01:16:37;2.42;;;0.20;;
71127;SDS011;59249;59.736;30.568;2024-03-23T01:19:14;2.88;;;0.40;;
71127;SDS011;59249;59.736;30.568;2024-03-23T01:21:48;2.03;;;0.30;;
71127;SDS011;59249;59.736;30.568;2024-03-23T01:24:22;2.70;;;0.30;;
71127;SDS011;59249;59.736;30.568;2024-03-23T01:26:49;1.20;;;0.10;;
71127;SDS011;59249;59.736;30.568;2024-03-23T01:29:17;1.63;;;0.30;;
71127;SDS011;59249;59.736;30.568;2024-03-23T01:31:46;0.85;;;0.20;;
71127;SDS011;59249;59.736;30.568;2024-03-23T01:34:14;2.78;;;0.28;;
71127;SDS011;59249;59.736;30.568;2024-03-23T01:36:41;1.98;;;0.28;;
71127;SDS011;59249;59.736;30.568;2024-03-23T01:39:10;1.13;;;0.10;;
71127;SDS011;59249;59.736;30.568;2024-03-23T01:41:44;2.45;;;0.20;;
71127;SDS011;59249;59.736;30.568;2024-03-23T01:44:21;0.68;;;0.10;;
71127;SDS011;59249;59.736;30.568;2024-03-23T01:46:56;1.77;;;0.20;;
71127;SDS011;59249;59.736;30.568;2024-03-23T01:49:28;2.17;;;0.28;;
71127;SDS011;59249;59.736;30.568;2024-03-23T01:52:03;1.57;;;0.10;;
71127;SDS011;59249;59.736;30.568;2024-03-23T01:54:37;1.85;;;0.30;;
71127;SDS011;59249;59.736;30.568;2024-03-23T01:57:19;0.90;;;0.10;;
71127;SDS011;59249;59.736;30.568;2024-03-23T01:59:50;2.15;;;0.20;;
71127;SDS011;59249;59.736;30.568;2024-03-23T02:02:26;1.90;;;0.47;;
71127;SDS011;59249;59.736;30.568;2024-03-23T02:04:55;1.13;;;0.20;;
71127;SDS011;59249;59.736;30.568;2024-03-23T02:07:24;1.80;;;0.25;;
71127;SDS011;59249;59.736;30.568;2024-03-23T02:09:58;1.55;;;0.25;;
71127;SDS011;59249;59.736;30.568;2024-03-23T02:12:36;1.27;;;0.20;;
71127;SDS011;59249;59.736;30.568;2024-03-23T02:15:07;1.98;;;0.30;;
71127;SDS011;59249;59.736;30.568;2024-03-23T02:17:57;2.23;;;0.20;;
71127;SDS011;59249;59.736;30.568;2024-03-23T02:20:32;1.35;;;0.20;;
71127;SDS011;59249;59.736;30.568;2024-03-23T02:23:01;0.90;;;0.10;;
71127;SDS011;59249;59.736;30.568;2024-03-23T02:25:46;0.98;;;0.20;;
71127;SDS011;59249;59.736;30.568;2024-03-23T02:28:17;1.67;;;0.30;;
71127;SDS011;59249;59.736;30.568;2024-03-23T02:30:53;0.70;;;0.10;;
71127;SDS011;59249;59.736;30.568;2024-03-23T02:33:37;1.65;;;0.20;;
71127;SDS011;59249;59.736;30.568;2024-03-23T02:36:07;2.35;;;0.30;;
71127;SDS011;59249;59.736;30.568;2024-03-23T02:38:40;1.00;;;0.20;;
71127;SDS011;59249;59.736;30.568;2024-03-23T02:41:09;2.13;;;0.30;;
71127;SDS011;59249;59.736;30.568;2024-03-23T02:43:41;2.17;;;0.20;;
71127;SDS011;59249;59.736;30.568;2024-03-23T02:46:13;1.45;;;0.20;;
71127;SDS011;59249;59.736;30.568;2024-03-23T02:48:40;1.83;;;0.20;;
71127;SDS011;59249;59.736;30.568;2024-03-23T02:51:08;2.20;;;0.10;;
71127;SDS011;59249;59.736;30.568;2024-03-23T02:53:38;1.50;;;0.30;;
71127;SDS011;59249;59.736;30.568;2024-03-23T02:56:06;2.87;;;0.10;;
71127;SDS011;59249;59.736;30.568;2024-03-23T02:58:35;1.13;;;0.20;;
71127;SDS011;59249;59.736;30.568;2024-03-23T03:01:03;0.73;;;0.10;;
71127;SDS011;59249;59.736;30.568;2024-03-23T03:03:31;0.88;;;0.17;;
71127;SDS011;59249;59.736;30.568;2024-03-23T03:05:59;0.88;;;0.20;;
71127;SDS011;59249;59.736;30.568;2024-03-23T03:08:26;1.10;;;0.20;;
71127;SDS011;59249;59.736;30.568;2024-03-23T03:10:56;0.90;;;0.10;;
71127;SDS011;59249;59.736;30.568;2024-03-23T03:13:23;1.15;;;0.10;;
71127;SDS011;59249;59.736;30.568;2024-03-23T03:15:51;0.82;;;0.20;;
71127;SDS011;59249;59.736;30.568;2024-03-23T03:18:21;2.17;;;0.30;;
71127;SDS011;59249;59.736;30.568;2024-03-23T03:20:58;0.50;;;0.20;;
71127;SDS011;59249;59.736;30.568;2024-03-23T03:23:32;0.88;;;0.20;;
71127;SDS011;59249;59.736;30.568;2024-03-23T03:26:07;1.02;;;0.20;;
71127;SDS011;59249;59.736;30.568;2024-03-23T03:28:37;2.65;;;0.30;;
71127;SDS011;59249;59.736;30.568;2024-03-23T03:31:05;1.08;;;0.17;;
71127;SDS011;59249;59.736;30.568;2024-03-23T03:33:32;2.00;;;0.20;;
71127;SDS011;59249;59.736;30.568;2024-03-23T03:36:00;2.17;;;0.50;;
71127;SDS011;59249;59.736;30.568;2024-03-23T03:38:27;1.75;;;0.30;;
71127;SDS011;59249;59.736;30.568;2024-03-23T03:40:55;2.35;;;0.30;;
71127;SDS011;59249;59.736;30.568;2024-03-23T03:43:26;5.07;;;0.75;;
71127;SDS011;59249;59.736;30.568;2024-03-23T03:45:54;1.27;;;0.20;;
71127;SDS011;59249;59.736;30.568;2024-03-23T03:48:22;1.98;;;0.40;;
71127;SDS011;59249;59.736;30.568;2024-03-23T03:50:50;2.38;;;0.47;;
71127;SDS011;59249;59.736;30.568;2024-03-23T03:53:18;2.47;;;0.40;;
71127;SDS011;59249;59.736;30.568;2024-03-23T03:55:47;2.30;;;0.57;;
71127;SDS011;59249;59.736;30.568;2024-03-23T03:58:14;2.23;;;0.67;;
71127;SDS011;59249;59.736;30.568;2024-03-23T04:00:44;2.78;;;0.60;;
71127;SDS011;59249;59.736;30.568;2024-03-23T04:03:12;2.97;;;0.47;;
71127;SDS011;59249;59.736;30.568;2024-03-23T04:05:41;3.03;;;0.60;;
71127;SDS011;59249;59.736;30.568;2024-03-23T04:08:16;2.00;;;0.47;;
71127;SDS011;59249;59.736;30.568;2024-03-23T04:10:47;1.87;;;0.50;;
71127;SDS011;59249;59.736;30.568;2024-03-23T04:13:16;2.45;;;0.40;;
71127;SDS011;59249;59.736;30.568;2024-03-23T04:15:57;3.60;;;0.70;;
71127;SDS011;59249;59.736;30.568;2024-03-23T04:18:24;3.30;;;0.57;;
71127;SDS011;59249;59.736;30.568;2024-03-23T04:20:53;2.88;;;0.55;;
71127;SDS011;59249;59.736;30.568;2024-03-23T04:23:24;3.27;;;0.70;;
71127;SDS011;59249;59.736;30.568;2024-03-23T04:25:52;3.63;;;0.85;;
71127;SDS011;59249;59.736;30.568;2024-03-23T04:28:19;3.42;;;0.73;;
71127;SDS011;59249;59.736;30.568;2024-03-23T04:30:48;3.38;;;1.05;;
71127;SDS011;59249;59.736;30.568;2024-03-23T04:33:16;3.90;;;0.80;;
71127;SDS011;59249;59.736;30.568;2024-03-23T04:35:45;5.20;;;1.23;;
71127;SDS011;59249;59.736;30.568;2024-03-23T04:38:18;5.03;;;1.33;;
71127;SDS011;59249;59.736;30.568;2024-03-23T04:40:53;6.70;;;1.27;;
71127;SDS011;59249;59.736;30.568;2024-03-23T04:43:22;6.45;;;2.03;;
71127;SDS011;59249;59.736;30.568;2024-03-23T04:45:52;7.30;;;1.70;;
71127;SDS011;59249;59.736;30.568;2024-03-23T04:48:37;6.33;;;1.07;;
71127;SDS011;59249;59.736;30.568;2024-03-23T04:51:05;7.03;;;1.73;;
71127;SDS011;59249;59.736;30.568;2024-03-23T04:53:37;5.32;;;1.40;;
71127;SDS011;59249;59.736;30.568;2024-03-23T04:56:07;5.30;;;1.40;;
71127;SDS011;59249;59.736;30.568;2024-03-23T04:58:42;4.88;;;1.85;;
71127;SDS011;59249;59.736;30.568;2024-03-23T05:01:10;3.00;;;0.97;;
71127;SDS011;59249;59.736;30.568;2024-03-23T05:03:40;7.30;;;2.28;;
71127;SDS011;59249;59.736;30.568;2024-03-23T05:06:11;5.28;;;1.40;;
71127;SDS011;59249;59.736;30.568;2024-03-23T05:08:39;8.05;;;2.55;;
71127;SDS011;59249;59.736;30.568;2024-03-23T05:11:09;8.27;;;2.28;;
71127;SDS011;59249;59.736;30.568;2024-03-23T05:13:36;8.27;;;1.90;;
71127;SDS011;59249;59.736;30.568;2024-03-23T05:16:07;7.78;;;2.15;;
71127;SDS011;59249;59.736;30.568;2024-03-23T05:18:34;7.10;;;1.98;;
71127;SDS011;59249;59.736;30.568;2024-03-23T05:21:10;6.72;;;2.17;;
71127;SDS011;59249;59.736;30.568;2024-03-23T05:23:38;6.55;;;2.25;;
71127;SDS011;59249;59.736;30.568;2024-03-23T05:26:07;10.80;;;2.37;;
71127;SDS011;59249;59.736;30.568;2024-03-23T05:28:47;8.88;;;2.13;;
71127;SDS011;59249;59.736;30.568;2024-03-23T05:31:24;8.48;;;2.63;;
71127;SDS011;59249;59.736;30.568;2024-03-23T05:33:53;9.65;;;2.67;;
71127;SDS011;59249;59.736;30.568;2024-03-23T05:36:25;7.15;;;2.42;;
71127;SDS011;59249;59.736;30.568;2024-03-23T05:38:53;5.40;;;1.60;;
71127;SDS011;59249;59.736;30.568;2024-03-23T05:41:21;5.15;;;1.75;;
71127;SDS011;59249;59.736;30.568;2024-03-23T05:43:51;5.30;;;2.35;;
71127;SDS011;59249;59.736;30.568;2024-03-23T05:46:22;4.72;;;1.38;;
71127;SDS011;59249;59.736;30.568;2024-03-23T05:48:52;4.00;;;1.23;;
71127;SDS011;59249;59.736;30.568;2024-03-23T05:51:30;5.80;;;1.73;;
71127;SDS011;59249;59.736;30.568;2024-03-23T05:53:57;5.15;;;1.63;;
71127;SDS011;59249;59.736;30.568;2024-03-23T05:56:27;4.80;;;1.60;;
71127;SDS011;59249;59.736;30.568;2024-03-23T05:58:54;5.88;;;1.83;;
71127;SDS011;59249;59.736;30.568;2024-03-23T06:01:22;8.68;;;1.85;;
71127;SDS011;59249;59.736;30.568;2024-03-23T06:03:49;3.87;;;1.27;;
71127;SDS011;59249;59.736;30.568;2024-03-23T06:06:22;8.75;;;1.73;;
71127;SDS011;59249;59.736;30.568;2024-03-23T06:08:53;3.65;;;0.85;;
71127;SDS011;59249;59.736;30.568;2024-03-23T06:11:21;4.07;;;1.05;;
71127;SDS011;59249;59.736;30.568;2024-03-23T06:13:54;7.55;;;1.20;;
71127;SDS011;59249;59.736;30.568;2024-03-23T06:16:23;4.83;;;1.33;;
71127;SDS011;59249;59.736;30.568;2024-03-23T06:19:09;4.82;;;1.08;;
71127;SDS011;59249;59.736;30.568;2024-03-23T06:21:37;4.35;;;1.20;;
71127;SDS011;59249;59.736;30.568;2024-03-23T06:24:11;5.05;;;1.00;;
71127;SDS011;59249;59.736;30.568;2024-03-23T06:26:39;4.57;;;1.45;;
71127;SDS011;59249;59.736;30.568;2024-03-23T06:29:06;5.97;;;1.33;;
71127;SDS011;59249;59.736;30.568;2024-03-23T06:31:37;4.88;;;1.58;;
71127;SDS011;59249;59.736;30.568;2024-03-23T06:34:07;7.55;;;1.77;;
71127;SDS011;59249;59.736;30.568;2024-03-23T06:36:35;6.97;;;1.38;;
71127;SDS011;59249;59.736;30.568;2024-03-23T06:39:04;5.82;;;1.48;;
71127;SDS011;59249;59.736;30.568;2024-03-23T06:41:33;5.68;;;1.80;;
71127;SDS011;59249;59.736;30.568;2024-03-23T06:44:01;7.80;;;1.77;;
71127;SDS011;59249;59.736;30.568;2024-03-23T06:46:30;5.60;;;1.83;;
71127;SDS011;59249;59.736;30.568;2024-03-23T06:48:57;6.47;;;1.08;;
71127;SDS011;59249;59.736;30.568;2024-03-23T06:51:32;7.85;;;1.38;;
71127;SDS011;59249;59.736;30.568;2024-03-23T06:54:15;5.45;;;0.95;;
71127;SDS011;59249;59.736;30.568;2024-03-23T06:56:47;5.13;;;1.50;;
71127;SDS011;59249;59.736;30.568;2024-03-23T06:59:14;5.43;;;1.88;;
71127;SDS011;59249;59.736;30.568;2024-03-23T07:01:43;3.85;;;1.15;;
71127;SDS011;59249;59.736;30.568;2024-03-23T07:04:12;8.25;;;1.98;;
71127;SDS011;59249;59.736;30.568;2024-03-23T07:06:58;6.25;;;1.20;;
71127;SDS011;59249;59.736;30.568;2024-03-23T07:09:33;6.90;;;2.23;;
71127;SDS011;59249;59.736;30.568;2024-03-23T07:12:04;5.95;;;1.40;;
71127;SDS011;59249;59.736;30.568;2024-03-23T07:14:33;5.40;;;1.17;;
71127;SDS011;59249;59.736;30.568;2024-03-23T07:17:00;5.13;;;1.98;;
71127;SDS011;59249;59.736;30.568;2024-03-23T07:19:29;6.32;;;1.80;;
71127;SDS011;59249;59.736;30.568;2024-03-23T07:21:56;5.07;;;1.67;;
71127;SDS011;59249;59.736;30.568;2024-03-23T07:24:24;5.93;;;1.83;;
71127;SDS011;59249;59.736;30.568;2024-03-23T07:26:52;7.57;;;1.40;;
71127;SDS011;59249;59.736;30.568;2024-03-23T07:29:25;7.38;;;1.77;;
71127;SDS011;59249;59.736;30.568;2024-03-23T07:31:52;4.85;;;1.10;;
71127;SDS011;59249;59.736;30.568;2024-03-23T07:34:20;6.93;;;1.17;;
71127;SDS011;59249;59.736;30.568;2024-03-23T07:36:47;5.20;;;1.40;;
71127;SDS011;59249;59.736;30.568;2024-03-23T07:39:15;6.32;;;1.20;;
71127;SDS011;59249;59.736;30.568;2024-03-23T07:41:44;5.85;;;1.50;;
71127;SDS011;59249;59.736;30.568;2024-03-23T07:44:12;4.50;;;1.10;;
71127;SDS011;59249;59.736;30.568;2024-03-23T07:46:41;5.00;;;0.87;;
71127;SDS011;59249;59.736;30.568;2024-03-23T07:49:09;3.92;;;1.10;;
71127;SDS011;59249;59.736;30.568;2024-03-23T07:51:36;3.40;;;0.60;;
71127;SDS011;59249;59.736;30.568;2024-03-23T07:54:05;4.72;;;0.95;;
71127;SDS011;59249;59.736;30.568;2024-03-23T07:56:32;3.80;;;1.23;;
71127;SDS011;59249;59.736;30.568;2024-03-23T07:59:01;3.80;;;1.10;;
71127;SDS011;59249;59.736;30.568;2024-03-23T08:01:29;4.63;;;1.08;;
71127;SDS011;59249;59.736;30.568;2024-03-23T08:03:59;5.43;;;1.08;;
71127;SDS011;59249;59.736;30.568;2024-03-23T08:06:26;4.93;;;0.85;;
71127;SDS011;59249;59.736;30.568;2024-03-23T08:08:56;5.43;;;0.95;;
71127;SDS011;59249;59.736;30.568;2024-03-23T08:11:26;5.00;;;1.00;;
71127;SDS011;59249;59.736;30.568;2024-03-23T08:13:55;6.07;;;0.82;;
71127;SDS011;59249;59.736;30.568;2024-03-23T08:16:23;4.90;;;1.08;;
71127;SDS011;59249;59.736;30.568;2024-03-23T08:18:51;2.40;;;0.60;;
71127;SDS011;59249;59.736;30.568;2024-03-23T08:21:20;4.45;;;1.00;;
71127;SDS011;59249;59.736;30.568;2024-03-23T08:23:48;4.57;;;0.90;;
71127;SDS011;59249;59.736;30.568;2024-03-23T08:26:16;2.97;;;0.80;;
71127;SDS011;59249;59.736;30.568;2024-03-23T08:28:47;3.63;;;0.90;;
71127;SDS011;59249;59.736;30.568;2024-03-23T08:31:14;3.20;;;0.68;;
71127;SDS011;59249;59.736;30.568;2024-03-23T08:33:42;4.45;;;0.65;;
71127;SDS011;59249;59.736;30.568;2024-03-23T08:36:10;4.47;;;0.87;;
71127;SDS011;59249;59.736;30.568;2024-03-23T08:38:41;3.92;;;0.70;;
71127;SDS011;59249;59.736;30.568;2024-03-23T08:41:09;6.35;;;1.30;;
71127;SDS011;59249;59.736;30.568;2024-03-23T08:43:38;2.17;;;0.52;;
71127;SDS011;59249;59.736;30.568;2024-03-23T08:46:08;4.63;;;1.00;;
71127;SDS011;59249;59.736;30.568;2024-03-23T08:48:38;3.50;;;0.87;;
71127;SDS011;59249;59.736;30.568;2024-03-23T08:51:06;8.75;;;2.17;;
71127;SDS011;59249;59.736;30.568;2024-03-23T08:53:36;4.10;;;1.58;;
71127;SDS011;59249;59.736;30.568;2024-03-23T08:56:05;4.38;;;1.38;;
71127;SDS011;59249;59.736;30.568;2024-03-23T08:58:36;5.57;;;1.58;;
71127;SDS011;59249;59.736;30.568;2024-03-23T09:01:07;6.03;;;1.70;;
71127;SDS011;59249;59.736;30.568;2024-03-23T09:03:41;6.68;;;1.50;;
71127;SDS011;59249;59.736;30.568;2024-03-23T09:06:09;4.72;;;1.63;;
71127;SDS011;59249;59.736;30.568;2024-03-23T09:08:46;6.32;;;1.73;;
71127;SDS011;59249;59.736;30.568;2024-03-23T09:11:30;7.68;;;2.28;;
71127;SDS011;59249;59.736;30.568;2024-03-23T09:14:05;4.60;;;1.57;;
71127;SDS011;59249;59.736;30.568;2024-03-23T09:16:32;4.25;;;1.88;;
71127;SDS011;59249;59.736;30.568;2024-03-23T09:19:00;4.68;;;1.58;;
71127;SDS011;59249;59.736;30.568;2024-03-23T09:21:27;4.72;;;1.48;;
71127;SDS011;59249;59.736;30.568;2024-03-23T09:23:55;7.03;;;1.77;;
71127;SDS011;59249;59.736;30.568;2024-03-23T09:26:22;6.53;;;2.23;;
71127;SDS011;59249;59.736;30.568;2024-03-23T09:28:51;3.33;;;1.00;;
71127;SDS011;59249;59.736;30.568;2024-03-23T09:31:20;3.67;;;1.23;;
71127;SDS011;59249;59.736;30.568;2024-03-23T09:33:48;3.40;;;0.55;;
71127;SDS011;59249;59.736;30.568;2024-03-23T09:36:16;3.10;;;0.80;;
71127;SDS011;59249;59.736;30.568;2024-03-23T09:38:44;1.67;;;0.40;;
71127;SDS011;59249;59.736;30.568;2024-03-23T09:41:14;3.08;;;0.77;;
71127;SDS011;59249;59.736;30.568;2024-03-23T09:43:45;2.92;;;0.57;;
71127;SDS011;59249;59.736;30.568;2024-03-23T09:46:15;3.90;;;0.70;;
71127;SDS011;59249;59.736;30.568;2024-03-23T09:48:44;2.67;;;0.68;;
71127;SDS011;59249;59.736;30.568;2024-03-23T09:51:13;2.37;;;0.80;;
71127;SDS011;59249;59.736;30.568;2024-03-23T09:53:43;3.70;;;0.77;;
71127;SDS011;59249;59.736;30.568;2024-03-23T09:56:23;2.70;;;0.45;;
71127;SDS011;59249;59.736;30.568;2024-03-23T09:59:00;3.42;;;0.60;;
71127;SDS011;59249;59.736;30.568;2024-03-23T10:01:30;2.50;;;0.80;;
71127;SDS011;59249;59.736;30.568;2024-03-23T10:03:58;2.77;;;0.80;;
71127;SDS011;59249;59.736;30.568;2024-03-23T10:06:25;2.63;;;0.90;;
71127;SDS011;59249;59.736;30.568;2024-03-23T10:08:53;3.35;;;0.85;;
71127;SDS011;59249;59.736;30.568;2024-03-23T10:11:21;2.33;;;0.70;;
71127;SDS011;59249;59.736;30.568;2024-03-23T10:13:55;5.03;;;0.80;;
71127;SDS011;59249;59.736;30.568;2024-03-23T10:16:22;2.63;;;0.80;;
71127;SDS011;59249;59.736;30.568;2024-03-23T10:18:54;3.47;;;1.00;;
71127;SDS011;59249;59.736;30.568;2024-03-23T10:21:21;4.32;;;0.95;;
71127;SDS011;59249;59.736;30.568;2024-03-23T10:24:07;2.92;;;0.80;;
71127;SDS011;59249;59.736;30.568;2024-03-23T10:26:36;5.30;;;0.90;;
71127;SDS011;59249;59.736;30.568;2024-03-23T10:29:07;2.47;;;0.70;;
71127;SDS011;59249;59.736;30.568;2024-03-23T10:31:37;2.88;;;0.55;;
71127;SDS011;59249;59.736;30.568;2024-03-23T10:34:08;2.67;;;0.77;;
71127;SDS011;59249;59.736;30.568;2024-03-23T10:36:53;1.98;;;0.50;;
71127;SDS011;59249;59.736;30.568;2024-03-23T10:39:22;4.65;;;1.30;;
71127;SDS011;59249;59.736;30.568;2024-03-23T10:41:49;1.47;;;0.53;;
71127;SDS011;59249;59.736;30.568;2024-03-23T10:44:18;1.15;;;0.22;;
71127;SDS011;59249;59.736;30.568;2024-03-23T10:46:46;0.60;;;0.10;;
71127;SDS011;59249;59.736;30.568;2024-03-23T10:49:16;2.25;;;0.50;;
71127;SDS011;59249;59.736;30.568;2024-03-23T10:52:02;2.28;;;0.47;;
71127;SDS011;59249;59.736;30.568;2024-03-23T10:54:38;3.17;;;0.60;;
71127;SDS011;59249;59.736;30.568;2024-03-23T10:57:13;3.92;;;0.60;;
71127;SDS011;59249;59.736;30.568;2024-03-23T10:59:45;2.05;;;0.38;;
71127;SDS011;59249;59.736;30.568;2024-03-23T11:02:18;1.90;;;0.40;;
71127;SDS011;59249;59.736;30.568;2024-03-23T11:04:54;3.67;;;0.55;;
71127;SDS011;59249;59.736;30.568;2024-03-23T11:07:28;3.37;;;0.53;;
71127;SDS011;59249;59.736;30.568;2024-03-23T11:09:59;4.38;;;1.10;;
71127;SDS011;59249;59.736;30.568;2024-03-23T11:12:29;3.83;;;0.50;;
71127;SDS011;59249;59.736;30.568;2024-03-23T11:15:01;4.10;;;1.00;;
71127;SDS011;59249;59.736;30.568;2024-03-23T11:17:31;3.20;;;0.68;;
71127;SDS011;59249;59.736;30.568;2024-03-23T11:20:01;2.53;;;0.57;;
71127;SDS011;59249;59.736;30.568;2024-03-23T11:22:38;5.47;;;1.45;;
71127;SDS011;59249;59.736;30.568;2024-03-23T11:25:13;3.92;;;1.00;;
71127;SDS011;59249;59.736;30.568;2024-03-23T11:27:47;4.18;;;1.40;;
71127;SDS011;59249;59.736;30.568;2024-03-23T11:30:23;4.68;;;1.70;;
71127;SDS011;59249;59.736;30.568;2024-03-23T11:32:56;4.77;;;1.40;;
71127;SDS011;59249;59.736;30.568;2024-03-23T11:35:44;5.45;;;1.45;;
71127;SDS011;59249;59.736;30.568;2024-03-23T11:38:12;5.32;;;1.42;;
71127;SDS011;59249;59.736;30.568;2024-03-23T11:40:43;5.50;;;1.60;;
71127;SDS011;59249;59.736;30.568;2024-03-23T11:43:15;5.60;;;1.23;;
71127;SDS011;59249;59.736;30.568;2024-03-23T11:45:46;4.63;;;1.57;;
71127;SDS011;59249;59.736;30.568;2024-03-23T11:48:19;8.20;;;1.38;;
71127;SDS011;59249;59.736;30.568;2024-03-23T11:50:55;7.25;;;1.60;;
71127;SDS011;59249;59.736;30.568;2024-03-23T11:53:24;5.00;;;1.70;;
71127;SDS011;59249;59.736;30.568;2024-03-23T11:56:00;5.03;;;1.40;;
71127;SDS011;59249;59.736;30.568;2024-03-23T11:58:34;3.77;;;0.97;;
71127;SDS011;59249;59.736;30.568;2024-03-23T12:01:03;4.65;;;1.50;;
71127;SDS011;59249;59.736;30.568;2024-03-23T12:03:43;5.25;;;1.33;;
71127;SDS011;59249;59.736;30.568;2024-03-23T12:06:13;6.28;;;1.60;;
71127;SDS011;59249;59.736;30.568;2024-03-23T12:08:46;5.85;;;2.10;;
71127;SDS011;59249;59.736;30.568;2024-03-23T12:11:16;6.57;;;1.20;;
71127;SDS011;59249;59.736;30.568;2024-03-23T12:13:45;4.60;;;1.23;;
71127;SDS011;59249;59.736;30.568;2024-03-23T12:16:15;5.95;;;1.02;;
71127;SDS011;59249;59.736;30.568;2024-03-23T12:18:47;4.93;;;1.25;;
71127;SDS011;59249;59.736;30.568;2024-03-23T12:21:20;4.93;;;1.17;;
71127;SDS011;59249;59.736;30.568;2024-03-23T12:23:48;4.67;;;1.57;;
71127;SDS011;59249;59.736;30.568;2024-03-23T12:26:17;2.75;;;1.27;;
71127;SDS011;59249;59.736;30.568;2024-03-23T12:28:45;5.85;;;1.63;;
71127;SDS011;59249;59.736;30.568;2024-03-23T12:31:19;5.85;;;1.50;;
71127;SDS011;59249;59.736;30.568;2024-03-23T12:33:46;6.45;;;1.65;;
71127;SDS011;59249;59.736;30.568;2024-03-23T12:36:14;4.63;;;1.33;;
71127;SDS011;59249;59.736;30.568;2024-03-23T12:38:45;3.22;;;1.20;;
71127;SDS011;59249;59.736;30.568;2024-03-23T12:41:13;7.32;;;1.42;;
71127;SDS011;59249;59.736;30.568;2024-03-23T12:43:47;6.32;;;1.20;;
71127;SDS011;59249;59.736;30.568;2024-03-23T12:46:16;3.05;;;1.00;;
71127;SDS011;59249;59.736;30.568;2024-03-23T12:48:44;3.93;;;1.23;;
71127;SDS011;59249;59.736;30.568;2024-03-23T12:51:12;4.20;;;1.50;;
71127;SDS011;59249;59.736;30.568;2024-03-23T12:53:39;3.38;;;0.98;;
71127;SDS011;59249;59.736;30.568;2024-03-23T12:56:15;5.90;;;1.70;;
71127;SDS011;59249;59.736;30.568;2024-03-23T12:58:44;3.33;;;1.17;;
71127;SDS011;59249;59.736;30.568;2024-03-23T13:01:17;4.40;;;1.10;;
71127;SDS011;59249;59.736;30.568;2024-03-23T13:03:53;4.53;;;1.48;;
71127;SDS011;59249;59.736;30.568;2024-03-23T13:06:25;4.72;;;1.35;;
71127;SDS011;59249;59.736;30.568;2024-03-23T13:08:53;2.58;;;0.95;;
71127;SDS011;59249;59.736;30.568;2024-03-23T13:11:24;5.07;;;0.95;;
71127;SDS011;59249;59.736;30.568;2024-03-23T13:13:51;3.67;;;1.10;;
71127;SDS011;59249;59.736;30.568;2024-03-23T13:16:19;3.20;;;1.27;;
71127;SDS011;59249;59.736;30.568;2024-03-23T13:18:47;2.53;;;0.90;;
71127;SDS011;59249;59.736;30.568;2024-03-23T13:21:14;4.50;;;1.23;;
71127;SDS011;59249;59.736;30.568;2024-03-23T13:23:42;5.25;;;1.70;;
71127;SDS011;59249;59.736;30.568;2024-03-23T13:26:14;5.63;;;1.60;;
71127;SDS011;59249;59.736;30.568;2024-03-23T13:28:43;4.38;;;1.42;;
71127;SDS011;59249;59.736;30.568;2024-03-23T13:31:11;4.05;;;1.35;;
71127;SDS011;59249;59.736;30.568;2024-03-23T13:33:39;5.95;;;1.60;;
71127;SDS011;59249;59.736;30.568;2024-03-23T13:36:08;3.85;;;1.05;;
71127;SDS011;59249;59.736;30.568;2024-03-23T13:38:39;5.87;;;1.83;;
71127;SDS011;59249;59.736;30.568;2024-03-23T13:41:08;4.85;;;1.63;;
71127;SDS011;59249;59.736;30.568;2024-03-23T13:43:50;3.53;;;1.30;;
71127;SDS011;59249;59.736;30.568;2024-03-23T13:46:19;4.40;;;1.45;;
71127;SDS011;59249;59.736;30.568;2024-03-23T13:48:45;6.45;;;1.30;;
71127;SDS011;59249;59.736;30.568;2024-03-23T13:51:14;3.50;;;1.43;;
71127;SDS011;59249;59.736;30.568;2024-03-23T13:53:50;3.78;;;1.33;;
71127;SDS011;59249;59.736;30.568;2024-03-23T13:56:18;5.38;;;1.80;;
71127;SDS011;59249;59.736;30.568;2024-03-23T13:58:46;3.35;;;1.40;;
71127;SDS011;59249;59.736;30.568;2024-03-23T14:01:16;3.58;;;0.95;;
71127;SDS011;59249;59.736;30.568;2024-03-23T14:03:53;4.77;;;1.27;;
71127;SDS011;59249;59.736;30.568;2024-03-23T14:06:26;4.47;;;1.60;;
71127;SDS011;59249;59.736;30.568;2024-03-23T14:08:53;5.55;;;1.58;;
71127;SDS011;59249;59.736;30.568;2024-03-23T14:11:21;6.05;;;1.35;;
71127;SDS011;59249;59.736;30.568;2024-03-23T14:13:48;3.67;;;1.30;;
71127;SDS011;59249;59.736;30.568;2024-03-23T14:16:18;6.13;;;1.30;;
71127;SDS011;59249;59.736;30.568;2024-03-23T14:18:46;5.30;;;1.55;;
71127;SDS011;59249;59.736;30.568;2024-03-23T14:21:17;5.05;;;1.40;;
71127;SDS011;59249;59.736;30.568;2024-03-23T14:23:44;4.13;;;0.82;;
71127;SDS011;59249;59.736;30.568;2024-03-23T14:26:12;5.97;;;1.35;;
71127;SDS011;59249;59.736;30.568;2024-03-23T14:28:40;4.27;;;1.50;;
71127;SDS011;59249;59.736;30.568;2024-03-23T14:31:08;6.30;;;1.95;;
71127;SDS011;59249;59.736;30.568;2024-03-23T14:33:39;3.38;;;0.93;;
71127;SDS011;59249;59.736;30.568;2024-03-23T14:36:12;5.03;;;1.08;;
71127;SDS011;59249;59.736;30.568;2024-03-23T14:38:41;4.38;;;0.95;;
71127;SDS011;59249;59.736;30.568;2024-03-23T14:41:13;3.80;;;1.33;;
71127;SDS011;59249;59.736;30.568;2024-03-23T14:43:44;3.78;;;1.25;;
71127;SDS011;59249;59.736;30.568;2024-03-23T14:46:14;4.82;;;1.75;;
71127;SDS011;59249;59.736;30.568;2024-03-23T14:48:45;4.40;;;0.98;;
71127;SDS011;59249;59.736;30.568;2024-03-23T14:51:13;4.05;;;0.82;;
71127;SDS011;59249;59.736;30.568;2024-03-23T14:53:44;6.43;;;2.00;;
71127;SDS011;59249;59.736;30.568;2024-03-23T14:56:12;5.40;;;1.80;;
71127;SDS011;59249;59.736;30.568;2024-03-23T14:58:42;6.70;;;1.88;;
71127;SDS011;59249;59.736;30.568;2024-03-23T15:01:11;5.57;;;1.88;;
71127;SDS011;59249;59.736;30.568;2024-03-23T15:03:39;5.35;;;1.25;;
71127;SDS011;59249;59.736;30.568;2024-03-23T15:06:10;4.43;;;1.27;;
71127;SDS011;59249;59.736;30.568;2024-03-23T15:08:38;6.03;;;1.95;;
71127;SDS011;59249;59.736;30.568;2024-03-23T15:11:06;5.53;;;1.67;;
71127;SDS011;59249;59.736;30.568;2024-03-23T15:13:36;4.97;;;1.65;;
71127;SDS011;59249;59.736;30.568;2024-03-23T15:16:04;6.38;;;2.10;;
71127;SDS011;59249;59.736;30.568;2024-03-23T15:18:33;5.40;;;1.70;;
71127;SDS011;59249;59.736;30.568;2024-03-23T15:21:02;5.90;;;1.70;;
71127;SDS011;59249;59.736;30.568;2024-03-23T15:23:34;5.97;;;1.48;;
71127;SDS011;59249;59.736;30.568;2024-03-23T15:26:10;4.68;;;1.48;;
71127;SDS011;59249;59.736;30.568;2024-03-23T15:28:39;6.63;;;1.95;;
71127;SDS011;59249;59.736;30.568;2024-03-23T15:31:08;8.73;;;1.53;;
71127;SDS011;59249;59.736;30.568;2024-03-23T15:33:39;4.43;;;1.67;;
71127;SDS011;59249;59.736;30.568;2024-03-23T15:36:06;6.07;;;1.55;;
71127;SDS011;59249;59.736;30.568;2024-03-23T15:38:36;5.18;;;1.17;;
71127;SDS011;59249;59.736;30.568;2024-03-23T15:41:04;6.78;;;2.00;;
71127;SDS011;59249;59.736;30.568;2024-03-23T15:43:34;6.13;;;1.90;;
71127;SDS011;59249;59.736;30.568;2024-03-23T15:46:02;6.82;;;2.08;;